Tiempo atmosférico en la estación meteorológica de Monterrubio De La Demanda, Burgos (1190 m.)



Fecha
DESCASC
Temp. máxima en grados centígrados (hora)
DESCASC
Temp. mínima en grados centígrados (hora)
DESCASC
Temp. media en grados centígrados
DESCASC
Racha de viento máxima en m/sg (hora)
DESCASC
Velocidad máxima media en intervalos de 10 minutos(hora)
DESCASC
Precipitaciones diarias en mm
DESCASC
Precipitaciones de 00:00 a 06:00 en mm
DESCASC
Precipitaciones de 06:00 a 12:00 en mm
DESCASC
Precipitaciones de 12:00 a 18:00 en mm
DESCASC
Precipitaciones de 18:00 a 24:00 en mm
DESCASC
02-08-2020 19 (16:00) 12.6 (23:59) 15.8 11.39 (02:40) 7.78 (02:10) 0 0 0 0 0
01-08-2020 27.7 (17:40) 14.4 (06:50) 21.1 10.83 (19:30) 8.33 (19:40) 0 0 0 0 0
31-07-2020 30.5 (18:40) 12.3 (07:20) 21.4 6.67 (13:20) 4.17 (12:50) 0 0 0 0 0
30-07-2020 32 (13:40) 14.9 (00:00) 23.4 23.06 (14:20) 15.83 (14:20) 16.4 0 0 14.2 2.2
29-07-2020 30.4 (16:10) 14.5 (00:00) 22.4 10.28 (02:40) 7.5 (02:50) 0 0 0 0 0
28-07-2020 23.9 (14:50) 13 (00:00) 18.4 13.33 (16:00) 10 (15:50) 0 0 0 0 0
27-07-2020 33.8 (16:10) 12 (00:00) 22.9 12.22 (22:30) 8.61 (22:30) 0 0 0 0 0
26-07-2020 30.2 (17:50) 11.9 (00:00) 21.1 11.39 (01:10) 9.72 (01:10) 0 0 0 0 0
25-07-2020 29.3 (17:40) 8.2 (00:00) 18.7 11.94 (16:30) 7.78 (23:50) 0 0 0 0 0
24-07-2020 26.5 (16:10) 12.3 (00:00) 19.4 10.56 (10:20) 8.61 (10:20) 0 0 0 0 0
23-07-2020 28.6 (16:40) 12.3 (00:00) 20.5 9.17 (23:30) 6.67 (23:30) 0.2 0 0 0 0.2
22-07-2020 26.5 (15:50) 12.5 (00:00) 19.5 10 (17:10) 7.22 (16:40) 0 0 0 0 0
21-07-2020 32.5 (14:50) 13.2 (00:00) 22.8 10.83 (17:10) 8.33 (00:20) 0.4 0 0 0 0.4
20-07-2020 31.3 (17:20) 13.3 (00:00) 22.3 10.28 (23:20) 7.78 (23:30) 0 0 0 0 0
19-07-2020 31.9 (17:30) 8.9 (00:00) 20.4 11.94 (22:10) 8.06 (22:10) 0 0 0 0 0
18-07-2020 28.7 (16:30) 7.6 (00:00) 18.2 10.56 (03:20) 8.61 (03:20) 0 0 0 0 0
17-07-2020 22.6 (16:20) 8.1 (00:00) 15.4 11.39 (18:00) 7.78 (18:40) 0 0 0 0 0
16-07-2020 24 (15:10) 7.9 (00:00) 16 10 (17:10) 7.5 (06:30) 0 0 0 0 0
15-07-2020 20 (17:10) 5.4 (00:00) 12.7 11.94 (14:50) 5.83 (09:10) 0 0 0 0 0
14-07-2020 21.5 (16:10) 7.1 (00:00) 14.3 13.06 (19:00) 7.78 (19:30) 0 0 0 0 0
13-07-2020 22.3 (15:40) 11.4 (00:00) 16.8 11.94 (20:10) 8.06 (20:10) 0 0 0 0 0
12-07-2020 27.5 (16:50) 11.1 (23:20) 19.3 17.5 (18:10) 10.28 (18:10) 33.2 0 0.6 6 26.6
11-07-2020 23.4 (16:10) 10.8 (07:50) 17.1 12.22 (10:20) 9.72 (10:30) 0 0 0 0 0
10-07-2020 21.9 (13:40) 10.1 (00:00) 16 11.94 (21:20) 8.89 (18:40) 0 0 0 0 0
09-07-2020 28.3 (14:10) 11.1 (17:50) 19.7 14.72 (17:30) 6.39 (17:10) 58.6 0 0 57.4 1.2
08-07-2020 30.2 (16:20) 12.4 (07:40) 21.3 16.94 (20:50) 10.83 (20:50) 0.2 0 0 0 0.2

Gráficas

Temp. máximas Temp. mínimas Temp. medias Precipitaciones Rachas de viento máximas Velocidades máximas media en intervalos de 10 minutos

Datos horarios

Fecha y hora oficial Temperatura (ºC) Velocidad del viento (km/h) Dirección del viento Racha (km/h) Dirección de racha Precipitación (mm) Presión (hPa) Tendencia (hPa) Humedad (%)
2020-08-06 23:00:00 23.1 3 Noroeste 22 Sudeste 0 -- -- 63
2020-08-06 22:00:00 25.6 8 Sudeste 21 Sudeste 0 -- -- 55
2020-08-06 21:00:00 26.8 13 Este 21 Sudeste 0 -- -- 50
2020-08-06 20:00:00 27.4 12 Este 17 Sudeste 0 -- -- 49
2020-08-06 19:00:00 30.3 3 Sudeste 10 Sur 0 -- -- 39
2020-08-06 18:00:00 30.7 12 Oeste 22 Sudoeste 0 -- -- 34
2020-08-06 17:00:00 30.8 14 Oeste 34 Sudoeste 0 -- -- 31
2020-08-06 16:00:00 31.1 10 Noroeste 24 Oeste 0 -- -- 28
2020-08-06 15:00:00 30.8 13 Oeste 24 Oeste 0 -- -- 30
2020-08-06 14:00:00 30.6 15 Oeste 30 Oeste 0 -- -- 32
2020-08-06 13:00:00 29.7 14 Oeste 28 Sudoeste 0 -- -- 31
2020-08-06 12:00:00 28.4 5 Noroeste 14 Oeste 0 -- -- 37
2020-08-06 11:00:00 25 6 Oeste 9 Oeste 0 -- -- 49
2020-08-06 10:00:00 19.6 4 Oeste 7 Sudoeste 0 -- -- 57
2020-08-06 09:00:00 15.4 3 Oeste 10 Este 0 -- -- 63
2020-08-06 08:00:00 11.7 2 Este 5 Nordeste 0 -- -- 73
2020-08-06 07:00:00 11.2 2 Oeste 6 Este 0 -- -- 70
2020-08-06 06:00:00 11.6 4 Oeste 8 Sudeste 0 -- -- 69
2020-08-06 05:00:00 12.1 0 Calma 5 Noroeste 0 -- -- 67
2020-08-06 04:00:00 12.4 4 Noroeste 5 Noroeste 0 -- -- 67
2020-08-06 03:00:00 13.1 3 Norte 6 Este 0 -- -- 64
2020-08-06 02:00:00 13.7 0 Calma 11 Sudeste 0 -- -- 64
2020-08-06 01:00:00 15.6 4 Este 8 Sudeste 0 -- -- 50
2020-08-06 00:00:00 17.1 3 Sudeste 10 Sudeste 0 -- -- 48
2020-08-05 23:00:00 18.9 5 Sudeste 14 Sudeste 0 -- -- 46
2020-08-05 22:00:00 22.2 10 Este 21 Este 0 -- -- 38
2020-08-05 21:00:00 24.2 11 Este 22 Nordeste 0 -- -- 32
2020-08-05 20:00:00 26.4 14 Este 25 Este 0 -- -- 31
2020-08-05 19:00:00 27.9 17 Este 23 Este 0 -- -- 31
2020-08-05 18:00:00 29 11 Noroeste 23 Oeste 0 -- -- 30
2020-08-05 17:00:00 29.2 10 Oeste 25 Noroeste 0 -- -- 29
2020-08-05 16:00:00 28.3 15 Oeste 27 Noroeste 0 -- -- 31
2020-08-05 15:00:00 27.6 9 Oeste 24 Oeste 0 -- -- 32
2020-08-05 14:00:00 26.2 14 Noroeste 24 Oeste 0 -- -- 32
2020-08-05 13:00:00 25.1 7 Noroeste 19 Oeste 0 -- -- 31
2020-08-05 12:00:00 22.7 10 Noroeste 17 Noroeste 0 -- -- 44
2020-08-05 11:00:00 19.7 7 Oeste 10 Oeste 0 -- -- 55
2020-08-05 10:00:00 14.9 2 Oeste 4 Oeste 0 -- -- 67
2020-08-05 09:00:00 11.1 2 Sur 4 Sur 0 -- -- 78
2020-08-05 08:00:00 7.1 0 Calma 4 Noroeste 0 -- -- 88
2020-08-05 07:00:00 6.3 0 Calma 3 Sudeste 0 -- -- 88
2020-08-05 06:00:00 6.6 0 Calma 3 Norte 0 -- -- 85
2020-08-05 05:00:00 7.4 2 Oeste 6 Oeste 0 -- -- 86
2020-08-05 04:00:00 8.9 3 Nordeste 10 Este 0 -- -- 90
2020-08-05 03:00:00 11.1 6 Este 14 Sudeste 0 -- -- 90
2020-08-05 02:00:00 11.7 10 Sudeste 25 Sudeste 0 -- -- 88
2020-08-05 01:00:00 13.3 16 Sudeste 23 Sudeste 0 -- -- 82
2020-08-05 00:00:00 13.8 15 Sudeste 25 Sudeste 0 -- -- 80
2020-08-04 23:00:00 15.3 17 Sudeste 22 Sudeste 0 -- -- 74
2020-08-04 22:00:00 16 14 Este 21 Este 0 -- -- 71
2020-08-04 21:00:00 18 13 Este 23 Este 0 -- -- 65
2020-08-04 20:00:00 20.1 18 Sudeste 27 Sudeste 0 -- -- 58
2020-08-04 19:00:00 21.4 22 Sudeste 31 Sudeste 0 -- -- 55
2020-08-04 18:00:00 22.3 19 Sudeste 31 Sudeste 0 -- -- 54
2020-08-04 17:00:00 23.1 18 Este 28 Sudeste 0 -- -- 47
2020-08-04 16:00:00 24 8 Sur 17 Sur 0 -- -- 38
2020-08-04 15:00:00 22.4 12 Sur 24 Sudeste 0 -- -- 44
2020-08-04 14:00:00 21 15 Sudeste 28 Sudeste 0 -- -- 49
2020-08-04 13:00:00 19.1 19 Sudeste 28 Sudeste 0 -- -- 55
2020-08-04 12:00:00 17.5 22 Sudeste 30 Sur 0 -- -- 63
2020-08-04 11:00:00 15.4 21 Sudeste 33 Sudeste 0 -- -- 70
2020-08-04 10:00:00 13.5 24 Sudeste 33 Sudeste 0 -- -- 78
2020-08-04 09:00:00 12.4 21 Sudeste 28 Sudeste 0 -- -- 82
2020-08-04 08:00:00 10.2 17 Sudeste 24 Sudeste 0 -- -- 90
2020-08-04 07:00:00 8 9 Este 18 Sur 0 -- -- 92
2020-08-04 06:00:00 9.9 11 Este 21 Este 0 -- -- 87
2020-08-04 05:00:00 8.6 9 Sudeste 13 Sudeste 0 -- -- 86
2020-08-04 04:00:00 9.5 5 Sudeste 9 Sudeste 0 -- -- 81
2020-08-04 03:00:00 10.2 5 Sudeste 21 Sudeste 0 -- -- 80
2020-08-04 02:00:00 11.3 11 Sudeste 24 Este 0 -- -- 78
2020-08-04 01:00:00 11.4 4 Sur 13 Sudeste 0 -- -- 82
2020-08-04 00:00:00 12.3 6 Sudeste 20 Sudeste 0 -- -- 80
2020-08-03 23:00:00 13.5 2 Este 27 Nordeste 0 -- -- 75
2020-08-03 22:00:00 14.9 19 Este 40 Este 0 -- -- 71
2020-08-03 21:00:00 16.5 21 Este 33 Este 0 -- -- 66
2020-08-03 20:00:00 18.2 18 Este 31 Nordeste 0 -- -- 59
2020-08-03 19:00:00 19.2 18 Nordeste 36 Nordeste 0 -- -- 54
2020-08-03 18:00:00 20.1 21 Nordeste 35 Nordeste 0 -- -- 53
2020-08-03 17:00:00 21.2 16 Nordeste 27 Este 0 -- -- 49
2020-08-03 16:00:00 21.2 15 Este 28 Este 0 -- -- 47
2020-08-03 15:00:00 20.4 17 Este 31 Este 0 -- -- 49
2020-08-03 14:00:00 20.3 17 Sudeste 27 Sudeste 0 -- -- 47
2020-08-03 13:00:00 19.9 6 Este 18 Sudeste 0 -- -- 51
2020-08-03 12:00:00 18.5 12 Este 26 Sudeste 0 -- -- 48
2020-08-03 11:00:00 15.7 21 Sudeste 28 Sudeste 0 -- -- 63
2020-08-03 10:00:00 13.4 20 Sudeste 28 Sudeste 0 -- -- 70
2020-08-03 09:00:00 11.5 18 Sudeste 27 Sudeste 0 -- -- 82
2020-08-03 08:00:00 9.8 16 Sudeste 27 Sudeste 0 -- -- 91
2020-08-03 07:00:00 9.9 15 Este 24 Este 0 -- -- 91
2020-08-03 06:00:00 9.7 14 Sudeste 22 Sudeste 0 -- -- 92
2020-08-03 05:00:00 10.4 14 Este 23 Sudeste 0 -- -- 87
2020-08-03 04:00:00 11.3 12 Sudeste 27 Sudeste 0 -- -- 82
2020-08-03 03:00:00 11.6 21 Sudeste 34 Sudeste 0 -- -- 83
2020-08-03 02:00:00 11.8 14 Sudeste 31 Sudeste 0 -- -- 85
2020-08-03 01:00:00 12.3 19 Este 31 Sudeste 0 -- -- 84
2020-08-03 00:00:00 12.6 14 Sudeste 23 Sudeste 0 -- -- 81
2020-08-02 23:00:00 13.2 9 Este 23 Este 0 -- -- 81
2020-08-02 22:00:00 13.2 14 Este 23 Sudeste 0 -- -- 85
2020-08-02 21:00:00 14.2 12 Este 26 Sudeste 0 -- -- 84
2020-08-02 20:00:00 16.2 15 Este 27 Sudeste 0 -- -- 78
2020-08-02 19:00:00 16 18 Sudeste 28 Sudeste 0 -- -- 79
2020-08-02 18:00:00 16.4 18 Este 35 Sudeste 0 -- -- 76
2020-08-02 17:00:00 17.6 24 Sudeste 36 Sudeste 0 -- -- 75
2020-08-02 16:00:00 19 24 Sudeste 36 Sudeste 0 -- -- 72
2020-08-02 15:00:00 18.5 25 Sudeste 36 Sudeste 0 -- -- 73
2020-08-02 14:00:00 18.9 23 Sudeste 36 Sudeste 0 -- -- 73
2020-08-02 13:00:00 18.4 25 Sudeste 36 Sudeste 0 -- -- 75
2020-08-02 12:00:00 17.1 26 Sudeste 35 Sudeste 0 -- -- 77
2020-08-02 11:00:00 16.6 26 Sudeste 35 Sudeste 0 -- -- 78
2020-08-02 10:00:00 15.6 25 Sudeste 34 Sudeste 0 -- -- 82
2020-08-02 09:00:00 14.7 24 Sudeste 32 Sudeste 0 -- -- 86
2020-08-02 08:00:00 13.2 19 Sudeste 31 Sur 0 -- -- 94
2020-08-02 07:00:00 13.3 23 Sudeste 31 Sudeste 0 -- -- 92
2020-08-02 06:00:00 13.8 22 Sudeste 31 Sudeste 0 -- -- 93
2020-08-02 05:00:00 13.9 15 Sudeste 32 Sudeste 0 -- -- 92
2020-08-02 04:00:00 14.1 22 Sudeste 31 Sudeste 0 -- -- 93
2020-08-02 03:00:00 14.2 18 Sudeste 41 Sudeste 0 -- -- 92
2020-08-02 02:00:00 14.4 26 Sudeste 38 Sudeste 0 -- -- 92
2020-08-02 01:00:00 14.6 22 Sudeste 32 Sudeste 0 -- -- 91
2020-08-02 00:00:00 14.7 15 Sudeste 30 Sudeste 0 -- -- 90
2020-08-01 23:00:00 15.3 22 Sudeste 33 Sudeste 0 -- -- 89
2020-08-01 22:00:00 15.8 23 Sudeste 34 Sudeste 0 -- -- 89
2020-08-01 21:00:00 17.5 22 Sudeste 36 Sudeste 0 -- -- 81
2020-08-01 20:00:00 19.4 28 Sudeste 39 Sudeste 0 -- -- 74
2020-08-01 19:00:00 21.7 28 Sudeste 36 Sudeste 0 -- -- 67
2020-08-01 18:00:00 27.5 9 Noroeste 28 Noroeste 0 -- -- 46
2020-08-01 17:00:00 27.4 17 Noroeste 33 Noroeste 0 -- -- 36
2020-08-01 16:00:00 27.6 19 Noroeste 31 Noroeste 0 -- -- 39
2020-08-01 15:00:00 27.1 20 Noroeste 36 Oeste 0 -- -- 44
2020-08-01 14:00:00 27 17 Noroeste 34 Oeste 0 -- -- 43
2020-08-01 13:00:00 25.9 20 Oeste 26 Oeste 0 -- -- 46
2020-08-01 12:00:00 23.9 3 Noroeste 15 Sudeste 0 -- -- 58
2020-08-01 11:00:00 20.4 13 Sudeste 24 Sudeste 0 -- -- 76
2020-08-01 10:00:00 17.3 19 Sudeste 29 Sudeste 0 -- -- 88
2020-08-01 09:00:00 15.7 21 Sudeste 30 Sudeste 0 -- -- 95
2020-08-01 08:00:00 14.8 21 Sudeste 35 Sudeste 0 -- -- 98
2020-08-01 07:00:00 14.4 20 Sudeste 33 Sudeste 0 -- -- 99
2020-08-01 06:00:00 14.5 18 Sudeste 30 Sudeste 0 -- -- 99
2020-08-01 05:00:00 14.7 17 Sudeste 26 Sudeste 0 -- -- 98
2020-08-01 04:00:00 15.1 16 Sudeste 24 Sudeste 0 -- -- 91
2020-08-01 03:00:00 15.6 10 Sudeste 14 Sudeste 0 -- -- 85
2020-08-01 02:00:00 15.9 6 Sudeste 15 Sudeste 0 -- -- 71
2020-08-01 01:00:00 15.7 2 Sudeste 4 Sudeste 0 -- -- 71
2020-08-01 00:00:00 16.8 0 Calma 3 Noroeste 0 -- -- 67
2020-07-31 23:00:00 18.7 2 Oeste 5 Este 0 -- -- 63
2020-07-31 22:00:00 20.9 4 Norte 10 Norte 0 -- -- 54
2020-07-31 21:00:00 25 3 Oeste 5 Oeste 0 -- -- 47
2020-07-31 20:00:00 29.9 4 Oeste 17 Noroeste 0 -- -- 37
2020-07-31 19:00:00 30.4 7 Noroeste 19 Oeste 0 -- -- 29
2020-07-31 18:00:00 30.3 10 Oeste 19 Oeste 0 -- -- 30
2020-07-31 17:00:00 29.4 8 Sur 14 Sudoeste 0 -- -- 35
2020-07-31 16:00:00 29.4 12 Norte 20 Oeste 0 -- -- 39
2020-07-31 15:00:00 28.8 6 Noroeste 24 Noroeste 0 -- -- 42
2020-07-31 14:00:00 27.7 8 Oeste 24 Oeste 0 -- -- 43
2020-07-31 13:00:00 26.7 14 Noroeste 22 Oeste 0 -- -- 45
2020-07-31 12:00:00 25.1 7 Noroeste 13 Noroeste 0 -- -- 50
2020-07-31 11:00:00 22.1 4 Oeste 6 Oeste 0 -- -- 73
2020-07-31 10:00:00 18.4 0 Calma 4 Oeste 0 -- -- 80
2020-07-31 09:00:00 15.4 0 Calma 4 Oeste 0 -- -- 90
2020-07-31 08:00:00 13.1 0 Calma 9 Noroeste 0 -- -- 96
2020-07-31 07:00:00 12.8 2 Noroeste 6 Oeste 0 -- -- 95
2020-07-31 06:00:00 13 2 Sudeste 6 Nordeste 0 -- -- 94
2020-07-31 05:00:00 13.4 2 Este 8 Oeste 0 -- -- 96
2020-07-31 04:00:00 13.8 0 Calma 10 Sur 0 -- -- 94
2020-07-31 03:00:00 14.6 4 Sudeste 9 Sur 0 -- -- 92
2020-07-31 02:00:00 15.4 4 Noroeste 15 Sudeste 0 -- -- 92
2020-07-31 01:00:00 16.6 7 Sudeste 17 Sudeste 0 -- -- 88
2020-07-31 00:00:00 16.3 10 Este 16 Este 0 -- -- 90
2020-07-30 23:00:00 16.4 8 Este 18 Oeste 0.2 -- -- 90
2020-07-30 22:00:00 17.4 7 Oeste 31 Este 1.2 -- -- 84
2020-07-30 21:00:00 18 8 Sudeste 36 Sur 0.8 -- -- 82
2020-07-30 20:00:00 20.7 26 Sudeste 60 Sudeste 0 -- -- 66
2020-07-30 19:00:00 20.5 35 Sudeste 53 Sudeste 0 -- -- 64
2020-07-30 18:00:00 17.7 25 Sudeste 46 Sudeste 0.6 -- -- 85
2020-07-30 17:00:00 18.2 20 Sudoeste 50 Sudoeste 3.2 -- -- 72
2020-07-30 16:00:00 18 15 Norte 40 Noroeste 1.6 -- -- 78
2020-07-30 15:00:00 17.4 8 Nordeste 83 Oeste 8.8 -- -- 80
2020-07-30 14:00:00 32 15 Oeste 31 Oeste 0 -- -- 30
2020-07-30 13:00:00 30.9 13 Este 23 Sudeste 0 -- -- 36
2020-07-30 12:00:00 30.5 8 Sur 22 Sur 0 -- -- 36
2020-07-30 11:00:00 27.1 4 Oeste 17 Noroeste 0 -- -- 49
2020-07-30 10:00:00 25.2 9 Sudeste 18 Sudeste 0 -- -- 53
2020-07-30 09:00:00 19.7 4 Este 8 Oeste 0 -- -- 69
2020-07-30 08:00:00 16.1 3 Noroeste 15 Sudeste 0 -- -- 74
2020-07-30 07:00:00 15.3 5 Sudeste 14 Este 0 -- -- 72
2020-07-30 06:00:00 15 6 Sudeste 18 Sudeste 0 -- -- 74
2020-07-30 05:00:00 15.7 5 Sudeste 16 Este 0 -- -- 71
2020-07-30 04:00:00 17.1 7 Sur 25 Este 0 -- -- 68
2020-07-30 03:00:00 17.2 4 Sudeste 21 Sudeste 0 -- -- 69
2020-07-30 02:00:00 17.6 13 Sudeste 21 Sudeste 0 -- -- 69
2020-07-30 01:00:00 18.8 2 Este 20 Sudeste 0 -- -- 64
2020-07-30 00:00:00 20.1 12 Sudeste 23 Sudeste 0 -- -- 59
2020-07-29 23:00:00 21.8 12 Sudeste 22 Sudeste 0 -- -- 52
2020-07-29 22:00:00 22.6 15 Sudeste 30 Sudeste 0 -- -- 54
2020-07-29 21:00:00 25 24 Sudeste 36 Sudeste 0 -- -- 55
2020-07-29 20:00:00 26.7 10 Este 31 Sudeste 0 -- -- 52
2020-07-29 19:00:00 27.9 16 Sudeste 28 Sudeste 0 -- -- 50
2020-07-29 18:00:00 28.6 14 Este 27 Sudeste 0 -- -- 49
2020-07-29 17:00:00 29.6 19 Sudeste 26 Sudeste 0 -- -- 45
2020-07-29 16:00:00 30.1 7 Norte 22 Noroeste 0 -- -- 36
2020-07-29 15:00:00 29.9 13 Norte 24 Noroeste 0 -- -- 36
2020-07-29 14:00:00 28.8 9 Noroeste 26 Noroeste 0 -- -- 38
2020-07-29 13:00:00 27.1 4 Sur 10 Oeste 0 -- -- 42
2020-07-29 12:00:00 24 9 Sudeste 21 Sudeste 0 -- -- 66
2020-07-29 11:00:00 19.8 14 Sudeste 22 Sudeste 0 -- -- 81
2020-07-29 10:00:00 16.2 17 Sudeste 26 Sudeste 0 -- -- 97
2020-07-29 09:00:00 14.9 16 Sudeste 25 Sudeste 0 -- -- 99
2020-07-29 08:00:00 14.6 14 Sudeste 27 Sudeste 0 -- -- 99
2020-07-29 07:00:00 14.7 22 Sudeste 30 Sudeste 0 -- -- 98
2020-07-29 06:00:00 15 19 Sudeste 31 Sudeste 0 -- -- 97
2020-07-29 05:00:00 15.3 24 Sudeste 33 Sudeste 0 -- -- 97
2020-07-29 04:00:00 15.5 23 Sudeste 34 Sudeste 0 -- -- 96
2020-07-29 03:00:00 15.7 23 Sudeste 37 Sudeste 0 -- -- 96
2020-07-29 02:00:00 16 24 Sudeste 35 Sudeste 0 -- -- 95
2020-07-29 01:00:00 16.2 23 Sudeste 34 Sudeste 0 -- -- 94
2020-07-29 00:00:00 16.5 18 Sudeste 33 Sudeste 0 -- -- 94
2020-07-28 23:00:00 17 22 Sudeste 31 Sudeste 0 -- -- 92
2020-07-28 22:00:00 17.6 15 Sudeste 29 Sudeste 0 -- -- 88
2020-07-28 21:00:00 19.4 14 Sudeste 31 Sudeste 0 -- -- 80
2020-07-28 20:00:00 20.7 20 Sudeste 45 Sudeste 0 -- -- 76
2020-07-28 19:00:00 21.7 31 Sudeste 43 Sudeste 0 -- -- 72
2020-07-28 18:00:00 22.5 30 Sudeste 45 Sudeste 0 -- -- 70
2020-07-28 17:00:00 23.2 33 Sudeste 44 Sudeste 0 -- -- 68
2020-07-28 16:00:00 22.5 36 Sudeste 48 Sudeste 0 -- -- 69
2020-07-28 15:00:00 23.9 34 Sudeste 41 Sudeste 0 -- -- 65
2020-07-28 14:00:00 23.3 30 Sudeste 42 Sudeste 0 -- -- 65
2020-07-28 13:00:00 21.7 32 Sudeste 41 Sudeste 0 -- -- 68
2020-07-28 12:00:00 20.5 30 Sudeste 39 Sudeste 0 -- -- 73
2020-07-28 11:00:00 18.9 27 Sudeste 39 Sudeste 0 -- -- 77
2020-07-28 10:00:00 16.6 30 Sudeste 39 Sudeste 0 -- -- 83
2020-07-28 09:00:00 14.4 29 Sudeste 36 Sudeste 0 -- -- 89
2020-07-28 08:00:00 13.6 22 Sudeste 36 Sudeste 0 -- -- 90
2020-07-28 07:00:00 13.4 26 Sudeste 39 Sudeste 0 -- -- 90
2020-07-28 06:00:00 14.1 19 Sudeste 36 Sudeste 0 -- -- 90
2020-07-28 05:00:00 15.6 19 Sudeste 32 Sudeste 0 -- -- 89
2020-07-28 04:00:00 15.9 21 Sudeste 40 Sudeste 0 -- -- 86
2020-07-28 03:00:00 16.2 31 Sudeste 39 Sudeste 0 -- -- 89
2020-07-28 02:00:00 17.3 21 Sudeste 43 Sudeste 0 -- -- 87
2020-07-28 01:00:00 18.2 34 Sudeste 44 Sudeste 0 -- -- 85
2020-07-28 00:00:00 19.6 19 Sudeste 35 Sudeste 0 -- -- 80
2020-07-27 23:00:00 20.5 25 Sudeste 44 Sudeste 0 -- -- 76
2020-07-27 22:00:00 22.3 18 Sudeste 27 Sudeste 0 -- -- 60
2020-07-27 21:00:00 25.4 4 Sudoeste 29 Sudeste 0 -- -- 47
2020-07-27 20:00:00 29 12 Sudeste 33 Sudeste 0 -- -- 41
2020-07-27 19:00:00 32.7 6 Norte 17 Norte 0 -- -- 30
2020-07-27 18:00:00 33.1 9 Oeste 34 Oeste 0 -- -- 29
2020-07-27 17:00:00 32.8 17 Noroeste 40 Oeste 0 -- -- 27
2020-07-27 16:00:00 33.5 21 Oeste 41 Oeste 0 -- -- 25
2020-07-27 15:00:00 33 25 Noroeste 37 Oeste 0 -- -- 25
2020-07-27 14:00:00 32.1 14 Oeste 33 Noroeste 0 -- -- 30
2020-07-27 13:00:00 31.1 10 Noroeste 19 Noroeste 0 -- -- 32
2020-07-27 12:00:00 29.6 9 Noroeste 19 Noroeste 0 -- -- 34
2020-07-27 09:00:00 -- -- -- -- -- -- -- -- --
2020-07-27 08:00:00 13.2 0 Calma 3 Sudeste 0 -- -- 82
2020-07-27 07:00:00 12.4 0 Calma 3 Noroeste 0 -- -- 82
2020-07-27 06:00:00 12.3 0 Calma 4 Noroeste 0 -- -- 81
2020-07-27 05:00:00 12.6 3 Sudeste 4 Sudeste 0 -- -- 78
2020-07-27 04:00:00 13.4 0 Calma 3 Noroeste 0 -- -- 75
2020-07-27 03:00:00 13.5 0 Calma 4 Este 0 -- -- 75
2020-07-27 02:00:00 14.5 0 Calma 5 Noroeste 0 -- -- 71
2020-07-27 01:00:00 15.1 0 Calma 6 Noroeste 0 -- -- 70
2020-07-27 00:00:00 16.5 0 Calma 6 Oeste 0 -- -- 66
2020-07-26 23:00:00 18.9 2 Sudoeste 11 Sudeste 0 -- -- 62
2020-07-26 22:00:00 21.4 9 Sudeste 18 Este 0 -- -- 57
2020-07-26 21:00:00 25.3 3 Sudeste 12 Norte 0 -- -- 43
2020-07-26 20:00:00 29.2 8 Norte 21 Noroeste 0 -- -- 28
2020-07-26 19:00:00 29.9 15 Noroeste 26 Noroeste 0 -- -- 28
2020-07-26 18:00:00 30.1 15 Noroeste 28 Noroeste 0 -- -- 26
2020-07-26 17:00:00 29.8 19 Noroeste 32 Noroeste 0 -- -- 27
2020-07-26 16:00:00 29 16 Noroeste 32 Noroeste 0 -- -- 28
2020-07-26 15:00:00 28.1 14 Noroeste 31 Noroeste 0 -- -- 34
2020-07-26 14:00:00 27 10 Oeste 21 Noroeste 0 -- -- 39
2020-07-26 13:00:00 25.6 12 Noroeste 21 Noroeste 0 -- -- 44
2020-07-26 12:00:00 23.4 4 Sur 18 Sudeste 0 -- -- 54
2020-07-26 11:00:00 20.6 11 Sudeste 21 Sudeste 0 -- -- 62
2020-07-26 10:00:00 18.2 17 Sudeste 22 Sudeste 0 -- -- 67
2020-07-26 09:00:00 16 10 Sudeste 18 Sudeste 0 -- -- 78
2020-07-26 08:00:00 13.3 5 Sudeste 17 Sudeste 0 -- -- 88
2020-07-26 07:00:00 11.9 10 Sudeste 19 Sudeste 0 -- -- 92
2020-07-26 06:00:00 13.1 7 Sudeste 24 Sudeste 0 -- -- 87
2020-07-26 05:00:00 13.4 12 Sudeste 26 Sudeste 0 -- -- 87
2020-07-26 04:00:00 14.3 21 Sudeste 28 Sudeste 0 -- -- 85
2020-07-26 03:00:00 14.7 15 Sudeste 36 Sudeste 0 -- -- 85
2020-07-26 02:00:00 15.4 29 Sudeste 41 Sudeste 0 -- -- 84
2020-07-26 01:00:00 16.4 28 Sudeste 39 Sudeste 0 -- -- 82
2020-07-26 00:00:00 17.4 27 Sudeste 35 Sudeste 0 -- -- 79
2020-07-25 23:00:00 19.5 18 Sudeste 30 Este 0 -- -- 71
2020-07-25 22:00:00 22.5 8 Sur 28 Este 0 -- -- 56
2020-07-25 21:00:00 25.7 9 Norte 17 Norte 0 -- -- 37
2020-07-25 20:00:00 28.3 9 Norte 28 Noroeste 0 -- -- 34
2020-07-25 19:00:00 29.1 18 Noroeste 31 Noroeste 0 -- -- 32
2020-07-25 18:00:00 29.2 16 Noroeste 30 Noroeste 0 -- -- 30
2020-07-25 17:00:00 28.9 18 Noroeste 43 Noroeste 0 -- -- 32
2020-07-25 16:00:00 28.7 15 Noroeste 32 Noroeste 0 -- -- 37
2020-07-25 15:00:00 27.7 12 Norte 27 Noroeste 0 -- -- 37
2020-07-25 14:00:00 26.7 12 Noroeste 28 Oeste 0 -- -- 38
2020-07-25 13:00:00 25.9 13 Noroeste 24 Noroeste 0 -- -- 42
2020-07-25 12:00:00 24.7 8 Norte 15 Noroeste 0 -- -- 42
2020-07-25 11:00:00 21.6 3 Noroeste 6 Norte 0 -- -- 54
2020-07-25 10:00:00 17.4 0 Calma 4 Noroeste 0 -- -- 65
2020-07-25 09:00:00 13 2 Oeste 4 Este 0 -- -- 80
2020-07-25 08:00:00 9.7 0 Calma 5 Sudeste 0 -- -- 91
2020-07-25 07:00:00 9.2 0 Calma 12 Este 0 -- -- 89
2020-07-25 06:00:00 10.3 8 Este 14 Este 0 -- -- 92
2020-07-25 05:00:00 10.8 7 Este 18 Sudeste 0 -- -- 94
2020-07-25 04:00:00 11.1 13 Sudeste 22 Sudeste 0 -- -- 95
2020-07-25 03:00:00 12.1 15 Sudeste 28 Sudeste 0 -- -- 92
2020-07-25 02:00:00 12.8 15 Este 24 Sudeste 0 -- -- 92
2020-07-25 01:00:00 13.2 13 Sudeste 29 Sudeste 0 -- -- 89
2020-07-25 00:00:00 14.5 19 Sudeste 26 Sudeste 0 -- -- 84
2020-07-24 23:00:00 15.3 17 Sudeste 26 Sudeste 0 -- -- 80
2020-07-24 22:00:00 16.7 14 Sudeste 20 Sudeste 0 -- -- 73
2020-07-24 21:00:00 19.2 14 Este 24 Este 0 -- -- 65
2020-07-24 20:00:00 20.8 21 Este 33 Nordeste 0 -- -- 59
2020-07-24 19:00:00 22.5 16 Este 31 Sudeste 0 -- -- 57
2020-07-24 18:00:00 23.8 18 Sudeste 23 Sudeste 0 -- -- 54
2020-07-24 17:00:00 24.4 19 Este 35 Sudeste 0 -- -- 51
2020-07-24 16:00:00 26.4 13 Noroeste 25 Oeste 0 -- -- 30
2020-07-24 15:00:00 26 12 Noroeste 26 Noroeste 0 -- -- 37
2020-07-24 14:00:00 24.8 15 Noroeste 26 Noroeste 0 -- -- 36
2020-07-24 13:00:00 22.8 4 Nordeste 22 Sudeste 0 -- -- 56
2020-07-24 12:00:00 20.2 19 Sudeste 33 Sudeste 0 -- -- 66
2020-07-24 11:00:00 17.6 28 Sudeste 38 Sudeste 0 -- -- 69
2020-07-24 10:00:00 15.8 28 Sudeste 37 Sudeste 0 -- -- 73
2020-07-24 09:00:00 14.1 26 Sudeste 34 Sudeste 0 -- -- 84
2020-07-24 08:00:00 12.7 21 Sudeste 34 Sudeste 0 -- -- 92
2020-07-24 07:00:00 12.7 16 Sudeste 33 Sudeste 0 -- -- 95
2020-07-24 06:00:00 13.4 26 Sudeste 36 Sudeste 0 -- -- 96
2020-07-24 05:00:00 13.9 26 Sudeste 33 Sudeste 0 -- -- 98
2020-07-24 04:00:00 14.1 23 Sudeste 30 Sudeste 0 -- -- 97
2020-07-24 03:00:00 14.8 22 Sudeste 30 Sudeste 0 -- -- 97
2020-07-24 02:00:00 15.4 17 Sudeste 28 Sudeste 0 -- -- 94
2020-07-24 01:00:00 16.4 13 Sudeste 33 Sudeste 0 -- -- 92
2020-07-24 00:00:00 16.4 22 Sudeste 33 Sudeste 0.2 -- -- 92
2020-07-23 23:00:00 18.4 18 Sudeste 23 Sudeste 0 -- -- 82
2020-07-23 22:00:00 19.5 13 Este 23 Este 0 -- -- 77
2020-07-23 21:00:00 21.7 14 Este 31 Nordeste 0 -- -- 68
2020-07-23 20:00:00 23.6 17 Nordeste 28 Nordeste 0 -- -- 62
2020-07-23 19:00:00 25.5 17 Este 27 Sudeste 0 -- -- 58
2020-07-23 18:00:00 27.4 11 Nordeste 28 Este 0 -- -- 47
2020-07-23 17:00:00 28.1 19 Oeste 30 Oeste 0 -- -- 37
2020-07-23 16:00:00 28 6 Norte 26 Noroeste 0 -- -- 41
2020-07-23 15:00:00 27.7 16 Oeste 28 Noroeste 0 -- -- 39
2020-07-23 14:00:00 27.1 10 Noroeste 27 Noroeste 0 -- -- 46
2020-07-23 13:00:00 26.4 10 Noroeste 21 Oeste 0 -- -- 44
2020-07-23 12:00:00 25.2 6 Oeste 17 Oeste 0 -- -- 45
2020-07-23 11:00:00 23.2 6 Oeste 10 Oeste 0 -- -- 59
2020-07-23 10:00:00 20.5 2 Sudeste 8 Sudeste 0 -- -- 74
2020-07-23 09:00:00 16.9 2 Sudeste 7 Este 0 -- -- 88
2020-07-23 08:00:00 13.5 3 Este 6 Este 0 -- -- 95
2020-07-23 07:00:00 12.4 0 Calma 2 Sur 0 -- -- 94
2020-07-23 06:00:00 13.2 2 Sudeste 10 Este 0 -- -- 94
2020-07-23 05:00:00 14.3 8 Este 12 Sudeste 0 -- -- 95
2020-07-23 04:00:00 14.7 6 Este 10 Sudeste 0 -- -- 92
2020-07-23 03:00:00 15.7 5 Este 9 Este 0 -- -- 92
2020-07-23 02:00:00 16.5 4 Sudeste 17 Sudeste 0 -- -- 88
2020-07-23 01:00:00 17.7 10 Sudeste 19 Sudeste 0 -- -- 82
2020-07-23 00:00:00 18.5 2 Nordeste 12 Sudeste 0 -- -- 76
2020-07-22 23:00:00 19.2 8 Sudeste 12 Este 0 -- -- 73
2020-07-22 22:00:00 21.1 3 Sudeste 24 Nordeste 0 -- -- 67
2020-07-22 21:00:00 22.7 15 Nordeste 22 Este 0 -- -- 59
2020-07-22 20:00:00 24.1 13 Este 26 Nordeste 0 -- -- 56
2020-07-22 19:00:00 25 20 Nordeste 33 Nordeste 0 -- -- 55
2020-07-22 18:00:00 23.4 22 Nordeste 36 Nordeste 0 -- -- 63
2020-07-22 17:00:00 23.5 26 Nordeste 35 Nordeste 0 -- -- 60
2020-07-22 16:00:00 26.4 8 Nordeste 14 Nordeste 0 -- -- 47
2020-07-22 15:00:00 26.1 9 Nordeste 17 Nordeste 0 -- -- 44
2020-07-22 14:00:00 25.6 7 Noroeste 12 Noroeste 0 -- -- 44
2020-07-22 13:00:00 25.3 6 Sudoeste 15 Sudeste 0 -- -- 43
2020-07-22 12:00:00 21.8 13 Sudeste 24 Sudeste 0 -- -- 58
2020-07-22 11:00:00 21.4 15 Sudeste 23 Este 0 -- -- 58
2020-07-22 10:00:00 19.4 6 Sudeste 27 Sudeste 0 -- -- 69
2020-07-22 09:00:00 16.3 15 Sudeste 25 Sudeste 0 -- -- 84
2020-07-22 08:00:00 14.1 4 Sudeste 13 Este 0 -- -- 94
2020-07-22 07:00:00 12.7 6 Noroeste 14 Este 0 -- -- 95
2020-07-22 06:00:00 12.8 6 Sudoeste 9 Sudeste 0 -- -- 94
2020-07-22 05:00:00 13.5 6 Este 11 Sudeste 0 -- -- 95
2020-07-22 04:00:00 13.3 4 Este 9 Sudeste 0 -- -- 94
2020-07-22 03:00:00 14.1 0 Calma 9 Sudeste 0 -- -- 88
2020-07-22 02:00:00 14.9 0 Calma 6 Sudeste 0 -- -- 88
2020-07-22 01:00:00 14.9 3 Nordeste 20 Este 0 -- -- 91
2020-07-22 00:00:00 15.7 7 Este 17 Sudeste 0.2 -- -- 89
2020-07-21 23:00:00 17.4 4 Nordeste 26 Sudeste 0.2 -- -- 78
2020-07-21 22:00:00 18.2 15 Sudeste 27 Sudeste 0 -- -- 69
2020-07-21 21:00:00 19.4 10 Sudeste 27 Sudeste 0 -- -- 63
2020-07-21 20:00:00 20.2 23 Sudeste 37 Este 0 -- -- 63
2020-07-21 19:00:00 21.2 16 Sudeste 37 Sudeste 0 -- -- 60
2020-07-21 18:00:00 22.7 20 Sudeste 39 Nordeste 0 -- -- 61
2020-07-21 17:00:00 24.6 10 Norte 26 Nordeste 0 -- -- 54
2020-07-21 16:00:00 26.9 16 Este 31 Nordeste 0 -- -- 43
2020-07-21 15:00:00 31.6 14 Oeste 25 Oeste 0 -- -- 27
2020-07-21 14:00:00 30.8 6 Norte 20 Noroeste 0 -- -- 35
2020-07-21 13:00:00 29.7 6 Norte 12 Oeste 0 -- -- 38
2020-07-21 12:00:00 28.4 4 Noroeste 10 Oeste 0 -- -- 43
2020-07-21 11:00:00 26.2 6 Sur 12 Sudeste 0 -- -- 52
2020-07-21 10:00:00 22.9 2 Sudeste 6 Sudeste 0 -- -- 69
2020-07-21 09:00:00 19.2 0 Calma 5 Oeste 0 -- -- 79
2020-07-21 08:00:00 15.2 3 Sudeste 12 Sudeste 0 -- -- 97
2020-07-21 07:00:00 13.2 5 Sudeste 17 Este 0 -- -- 98
2020-07-21 06:00:00 13.8 9 Sudeste 19 Sudeste 0 -- -- 99
2020-07-21 05:00:00 15 10 Este 17 Este 0 -- -- 98
2020-07-21 04:00:00 15.5 11 Este 23 Sudeste 0 -- -- 95
2020-07-21 03:00:00 16.4 16 Sudeste 35 Este 0 -- -- 91
2020-07-21 02:00:00 17.9 23 Sudeste 35 Este 0 -- -- 87
2020-07-21 01:00:00 17.8 24 Sudeste 38 Sudeste 0 -- -- 88
2020-07-21 00:00:00 18.6 26 Sudeste 37 Sudeste 0 -- -- 85
2020-07-20 23:00:00 19.2 26 Sudeste 36 Este 0 -- -- 82
2020-07-20 22:00:00 21.2 21 Sudeste 31 Sudeste 0 -- -- 75
2020-07-20 21:00:00 23.7 15 Este 23 Este 0 -- -- 65
2020-07-20 20:00:00 25.3 17 Nordeste 30 Nordeste 0 -- -- 60
2020-07-20 19:00:00 27.3 25 Sudeste 34 Sudeste 0 -- -- 53
2020-07-20 18:00:00 29 22 Sudeste 30 Sudeste 0 -- -- 46
2020-07-20 17:00:00 30.9 10 Oeste 27 Oeste 0 -- -- 29
2020-07-20 16:00:00 30.2 18 Oeste 30 Oeste 0 -- -- 31
2020-07-20 15:00:00 28.6 11 Noroeste 29 Noroeste 0 -- -- 34
2020-07-20 14:00:00 29.1 15 Noroeste 26 Oeste 0 -- -- 38
2020-07-20 13:00:00 28.6 7 Noroeste 17 Noroeste 0 -- -- 39
2020-07-20 12:00:00 27.2 3 Sudeste 8 Sudeste 0 -- -- 44
2020-07-20 11:00:00 24.7 4 Sudeste 9 Sur 0 -- -- 59
2020-07-20 10:00:00 20.9 8 Sudeste 13 Sudeste 0 -- -- 70
2020-07-20 09:00:00 17.6 9 Sudeste 17 Sudeste 0 -- -- 82
2020-07-20 08:00:00 15.2 11 Sudeste 20 Sudeste 0 -- -- 91
2020-07-20 07:00:00 13.4 14 Sudeste 22 Sudeste 0 -- -- 96
2020-07-20 06:00:00 13.5 8 Sudeste 21 Sudeste 0 -- -- 93
2020-07-20 05:00:00 14.6 10 Sudeste 33 Sudeste 0 -- -- 92
2020-07-20 04:00:00 15.6 21 Sudeste 33 Sudeste -- -- -- 86
2020-07-20 03:00:00 16.7 20 Sudeste 30 Sudeste 0 -- -- 79
2020-07-20 02:00:00 16.7 17 Sudeste 27 Sudeste 0 -- -- 75
2020-07-20 01:00:00 17.2 15 Sudeste 24 Este 0 -- -- 72
2020-07-20 00:00:00 19.2 19 Sudeste 28 Sudeste 0 -- -- 60
2020-07-19 23:00:00 20.1 13 Este 43 Sudeste 0 -- -- 56
2020-07-19 22:00:00 22.6 21 Este 38 Sur 0 -- -- 51
2020-07-19 21:00:00 24.5 8 Sudeste 22 Sudeste 0 -- -- 48
2020-07-19 20:00:00 27 21 Sudeste 32 Sudeste 0 -- -- 42
2020-07-19 19:00:00 28.6 22 Sudeste 31 Sudeste 0 -- -- 37
2020-07-19 18:00:00 29.4 21 Sudeste 29 Sudeste 0 -- -- 36
2020-07-19 17:00:00 30.8 4 Nordeste 22 Noroeste 0 -- -- 29
2020-07-19 16:00:00 31 12 Norte 27 Noroeste 0 -- -- 28
2020-07-19 15:00:00 30.6 10 Noroeste 22 Oeste 0 -- -- 31
2020-07-19 14:00:00 30.3 12 Sudoeste 17 Oeste 0 -- -- 31
2020-07-19 13:00:00 29.2 5 Sudoeste 13 Oeste 0 -- -- 34
2020-07-19 12:00:00 27.3 4 Noroeste 8 Oeste 0 -- -- 36
2020-07-19 11:00:00 25.1 2 Sudoeste 7 Oeste 0 -- -- 47
2020-07-19 10:00:00 20.6 3 Noroeste 5 Oeste 0 -- -- 68
2020-07-19 09:00:00 17.2 0 Calma 3 Oeste 0 -- -- 72
2020-07-19 08:00:00 13.5 0 Calma 4 Este 0 -- -- 89
2020-07-19 07:00:00 9.5 0 Calma 3 Oeste 0 -- -- 95
2020-07-19 06:00:00 9.9 0 Calma 4 Este 0 -- -- 95
2020-07-19 05:00:00 9.8 2 Sudeste 2 Sudeste 0 -- -- 96
2020-07-19 04:00:00 10.6 0 Calma 4 Sudeste 0 -- -- 95
2020-07-19 03:00:00 10.9 0 Calma 5 Noroeste 0 -- -- 92
2020-07-19 02:00:00 12.1 0 Calma 5 Noroeste 0 -- -- 87
2020-07-19 01:00:00 13.2 0 Calma 5 Noroeste 0 -- -- 83
2020-07-19 00:00:00 15.7 3 Noroeste 7 Noroeste 0 -- -- 76
2020-07-18 23:00:00 17.6 3 Oeste 12 Este 0 -- -- 69
2020-07-18 22:00:00 19.9 8 Este 18 Sudeste 0 -- -- 59
2020-07-18 21:00:00 23 9 Este 24 Sudeste 0 -- -- 54
2020-07-18 20:00:00 25.4 16 Sudeste 24 Sudeste 0 -- -- 47
2020-07-18 19:00:00 28.7 7 Noroeste 19 Noroeste 0 -- -- 29
2020-07-18 18:00:00 28.2 13 Noroeste 21 Noroeste 0 -- -- 33
2020-07-18 17:00:00 28.3 13 Oeste 19 Noroeste 0 -- -- 32
2020-07-18 16:00:00 28.1 5 Oeste 18 Oeste 0 -- -- 30
2020-07-18 15:00:00 27.2 9 Oeste 19 Noroeste 0 -- -- 32
2020-07-18 14:00:00 25.8 7 Oeste 18 Oeste 0 -- -- 35
2020-07-18 13:00:00 24.3 5 Noroeste 14 Noroeste 0 -- -- 33
2020-07-18 12:00:00 22.1 4 Sudoeste 17 Sudeste 0 -- -- 45
2020-07-18 11:00:00 18.3 16 Sudeste 22 Sudeste 0 -- -- 59
2020-07-18 10:00:00 15.7 12 Sudeste 23 Sudeste 0 -- -- 69
2020-07-18 09:00:00 12.8 17 Sudeste 26 Sudeste 0 -- -- 80
2020-07-18 08:00:00 9.9 11 Sudeste 22 Sudeste 0 -- -- 92
2020-07-18 07:00:00 7.7 22 Sudeste 32 Sudeste 0 -- -- 97
2020-07-18 06:00:00 8.6 23 Sudeste 32 Sudeste 0 -- -- 98
2020-07-18 05:00:00 8.8 23 Sudeste 37 Sudeste 0 -- -- 96
2020-07-18 04:00:00 9.2 25 Sudeste 38 Sudeste 0 -- -- 95
2020-07-18 03:00:00 9.6 25 Sudeste 34 Sudeste 0 -- -- 94
2020-07-18 02:00:00 10.3 21 Este 34 Sudeste 0 -- -- 92
2020-07-18 01:00:00 11.1 23 Sudeste 33 Sudeste 0 -- -- 88
2020-07-18 00:00:00 11.9 15 Sudeste 24 Sudeste 0 -- -- 83
2020-07-17 23:00:00 13.3 18 Este 31 Este 0 -- -- 77
2020-07-17 22:00:00 13.9 16 Este 25 Este 0 -- -- 76
2020-07-17 21:00:00 16.6 13 Este 26 Nordeste 0 -- -- 64
2020-07-17 20:00:00 18.7 16 Este 38 Nordeste 0 -- -- 54
2020-07-17 19:00:00 19.4 26 Nordeste 40 Nordeste 0 -- -- 51
2020-07-17 18:00:00 20.4 27 Nordeste 41 Nordeste 0 -- -- 48
2020-07-17 17:00:00 22.1 20 Nordeste 37 Este 0 -- -- 45
2020-07-17 16:00:00 22.2 10 Este 27 Este 0 -- -- 43
2020-07-17 15:00:00 21.6 15 Sudeste 26 Sudeste 0 -- -- 43
2020-07-17 14:00:00 21.3 14 Sudeste 27 Sudeste 0 -- -- 42
2020-07-17 13:00:00 20.1 21 Sudeste 30 Sudeste 0 -- -- 43
2020-07-17 12:00:00 18.8 21 Sudeste 29 Sudeste 0 -- -- 48
2020-07-17 11:00:00 16.9 18 Sudeste 29 Sudeste 0 -- -- 64
2020-07-17 10:00:00 11.9 26 Sudeste 34 Sudeste 0 -- -- 89
2020-07-17 09:00:00 9.5 24 Sudeste 32 Sudeste 0 -- -- 99
2020-07-17 08:00:00 8.2 22 Sudeste 29 Sudeste 0 -- -- 100
2020-07-17 07:00:00 8.1 16 Sudeste 29 Sudeste 0 -- -- 99
2020-07-17 06:00:00 8.2 24 Sudeste 32 Sudeste 0 -- -- 98
2020-07-17 05:00:00 9.4 20 Sudeste 28 Sudeste 0 -- -- 91
2020-07-17 04:00:00 10.3 15 Sudeste 26 Sudeste 0 -- -- 86
2020-07-17 03:00:00 10.8 15 Sudeste 26 Sudeste 0 -- -- 86
2020-07-17 02:00:00 11.2 13 Sudeste 26 Sudeste 0 -- -- 87
2020-07-17 01:00:00 11.8 13 Sudeste 21 Sudeste 0 -- -- 82
2020-07-17 00:00:00 12.9 10 Sudeste 20 Sudeste 0 -- -- 72
2020-07-16 23:00:00 14.7 12 Sudeste 30 Sudeste 0 -- -- 67
2020-07-16 22:00:00 16.1 17 Este 27 Este 0 -- -- 64
2020-07-16 21:00:00 18.4 15 Este 24 Sudeste 0 -- -- 56
2020-07-16 20:00:00 20.4 14 Este 25 Este 0 -- -- 56
2020-07-16 19:00:00 21.5 17 Este 33 Este 0 -- -- 56
2020-07-16 18:00:00 22.3 18 Este 36 Este 0 -- -- 53
2020-07-16 17:00:00 22.9 23 Este 34 Nordeste 0 -- -- 54
2020-07-16 16:00:00 23.8 19 Sudeste 27 Sudeste 0 -- -- 51
2020-07-16 15:00:00 23.8 18 Sudeste 28 Sudeste 0 -- -- 52
2020-07-16 14:00:00 22.6 19 Sudeste 29 Sudeste 0 -- -- 53
2020-07-16 13:00:00 22 19 Sudeste 30 Sudeste 0 -- -- 52
2020-07-16 12:00:00 20.2 23 Sudeste 32 Sudeste 0 -- -- 56
2020-07-16 11:00:00 18 21 Sudeste 29 Sudeste 0 -- -- 52
2020-07-16 10:00:00 14.3 24 Sudeste 32 Sudeste 0 -- -- 69
2020-07-16 09:00:00 11.3 22 Sudeste 32 Sudeste 0 -- -- 82
2020-07-16 08:00:00 9 23 Sudeste 33 Sudeste 0 -- -- 95
2020-07-16 07:00:00 8.2 24 Sudeste 34 Sudeste 0 -- -- 96
2020-07-16 06:00:00 8.5 15 Sudeste 31 Sudeste 0 -- -- 93
2020-07-16 05:00:00 8.9 21 Sudeste 31 Sudeste 0 -- -- 93
2020-07-16 04:00:00 9.4 23 Sudeste 30 Sudeste 0 -- -- 91
2020-07-16 03:00:00 10.3 24 Sudeste 30 Sudeste 0 -- -- 85
2020-07-16 02:00:00 10.5 13 Sudeste 20 Sudeste 0 -- -- 82
2020-07-16 01:00:00 11.2 14 Sudeste 21 Sudeste 0 -- -- 78
2020-07-16 00:00:00 12.3 14 Sudeste 24 Sudeste 0 -- -- 68
2020-07-15 23:00:00 13.3 16 Este 30 Este 0 -- -- 69
2020-07-15 22:00:00 14.4 15 Este 26 Nordeste 0 -- -- 66
2020-07-15 21:00:00 16.1 15 Este 28 Este 0 -- -- 63
2020-07-15 20:00:00 18.3 13 Este 25 Sudeste 0 -- -- 61
2020-07-15 19:00:00 19.2 20 Sudeste 28 Este 0 -- -- 58
2020-07-15 18:00:00 19.9 13 Sudeste 26 Sudeste 0 -- -- 56
2020-07-15 17:00:00 19.8 18 Sudeste 31 Sudeste 0 -- -- 59
2020-07-15 16:00:00 19.7 18 Sudeste 30 Sudeste 0 -- -- 63
2020-07-15 15:00:00 19.5 15 Este 43 Sudeste 0 -- -- 59
2020-07-15 14:00:00 19.1 16 Este 33 Este 0 -- -- 58
2020-07-15 13:00:00 17.6 10 Este 29 Sudeste 0 -- -- 65
2020-07-15 12:00:00 18.5 13 Sudeste 24 Sudeste 0 -- -- 60
2020-07-15 11:00:00 16.5 14 Sudeste 27 Sudeste 0 -- -- 64
2020-07-15 10:00:00 14.3 20 Sudeste 31 Este 0 -- -- 69
2020-07-15 09:00:00 12.1 20 Sudeste 29 Este 0 -- -- 67
2020-07-15 08:00:00 9.5 15 Sudeste 22 Sudeste 0 -- -- 56
2020-07-15 07:00:00 5.4 13 Sudeste 20 Sudeste 0 -- -- 75
2020-07-15 06:00:00 6 14 Sudeste 23 Sudeste 0 -- -- 71
2020-07-15 05:00:00 6.2 15 Sudeste 21 Sur 0 -- -- 71
2020-07-15 04:00:00 6.9 15 Sudeste 22 Sudeste 0 -- -- 68
2020-07-15 03:00:00 7 15 Sudeste 22 Sudeste 0 -- -- 64
2020-07-15 02:00:00 8.9 17 Sudeste 27 Sudeste 0 -- -- 54
2020-07-15 01:00:00 10 20 Sudeste 30 Sudeste 0 -- -- 55
2020-07-15 00:00:00 10.8 16 Este 27 Sudeste 0 -- -- 57
2020-07-14 23:00:00 11.9 16 Este 27 Este 0 -- -- 66
2020-07-14 22:00:00 13.5 13 Este 30 Este 0 -- -- 63
2020-07-14 21:00:00 15.6 19 Este 36 Este 0 -- -- 57
2020-07-14 20:00:00 17.1 27 Este 43 Este 0 -- -- 56
2020-07-14 19:00:00 18.5 28 Nordeste 47 Nordeste 0 -- -- 50
2020-07-14 18:00:00 20 25 Nordeste 39 Este 0 -- -- 49
2020-07-14 17:00:00 20.8 18 Este 32 Este 0 -- -- 46
2020-07-14 16:00:00 21.4 17 Sudeste 31 Sudeste 0 -- -- 38
2020-07-14 15:00:00 20.9 21 Sudeste 30 Sudeste 0 -- -- 38
2020-07-14 14:00:00 20.1 19 Sudeste 33 Sudeste 0 -- -- 33
2020-07-14 13:00:00 18.9 24 Sudeste 38 Sudeste 0 -- -- 29
2020-07-14 12:00:00 18.4 23 Sudeste 32 Sudeste 0 -- -- 33
2020-07-14 11:00:00 16.4 22 Sudeste 28 Sudeste 0 -- -- 41
2020-07-14 10:00:00 14.3 19 Sudeste 28 Sudeste 0 -- -- 53
2020-07-14 09:00:00 11.7 22 Sudeste 28 Sudeste 0 -- -- 61
2020-07-14 08:00:00 8.6 13 Sudeste 18 Sudeste 0 -- -- 75
2020-07-14 07:00:00 7.8 11 Sudeste 15 Este 0 -- -- 75
2020-07-14 06:00:00 7.5 9 Sudeste 19 Sudeste 0 -- -- 80
2020-07-14 05:00:00 8 12 Sudeste 22 Sudeste 0 -- -- 77
2020-07-14 04:00:00 7.8 11 Sudeste 16 Sudeste 0 -- -- 78
2020-07-14 03:00:00 8.1 12 Sudeste 17 Sudeste 0 -- -- 79
2020-07-14 02:00:00 10 10 Sudeste 19 Este 0 -- -- 67
2020-07-14 01:00:00 11 11 Sudeste 23 Sudeste 0 -- -- 62
2020-07-14 00:00:00 12.5 18 Este 29 Sudeste 0 -- -- 64
2020-07-13 23:00:00 12.9 11 Este 27 Este 0 -- -- 67
2020-07-13 22:00:00 14.7 16 Este 40 Nordeste 0 -- -- 59
2020-07-13 21:00:00 16.6 27 Este 43 Este 0 -- -- 53
2020-07-13 20:00:00 18.6 24 Este 42 Este 0 -- -- 53
2020-07-13 19:00:00 20 24 Nordeste 37 Nordeste 0 -- -- 56
2020-07-13 18:00:00 20.8 22 Este 37 Nordeste 0 -- -- 58
2020-07-13 17:00:00 21.5 21 Nordeste 33 Este 0 -- -- 57
2020-07-13 16:00:00 22 17 Este 31 Nordeste 0 -- -- 58
2020-07-13 15:00:00 21.7 20 Sudeste 30 Sudeste 0 -- -- 60
2020-07-13 14:00:00 20.8 19 Sudeste 30 Sudeste 0 -- -- 61
2020-07-13 13:00:00 20 19 Sudeste 30 Sudeste 0 -- -- 68
2020-07-13 12:00:00 18.7 20 Sudeste 30 Sudeste 0 -- -- 71
2020-07-13 11:00:00 17.3 21 Sudeste 31 Sudeste 0 -- -- 76
2020-07-13 10:00:00 15.6 21 Sudeste 28 Sudeste 0 -- -- 83
2020-07-13 09:00:00 14 15 Sudeste 21 Sudeste 0 -- -- 93
2020-07-13 08:00:00 12.9 16 Sudeste 23 Sudeste 0 -- -- 99
2020-07-13 07:00:00 12.9 15 Sudeste 23 Sudeste 0 -- -- 99
2020-07-13 06:00:00 13 15 Sudeste 27 Sudeste 0 -- -- 100
2020-07-13 05:00:00 12.6 14 Sudeste 25 Sur 0 -- -- 100
2020-07-13 04:00:00 12.3 17 Sudeste 24 Sudeste 0 -- -- 100
2020-07-13 03:00:00 12.3 12 Sudeste 18 Sudeste 0 -- -- 100
2020-07-13 02:00:00 12.5 11 Sudeste 18 Sudeste 0 -- -- 100
2020-07-13 01:00:00 12.3 10 Sudeste 22 Sudeste 0 -- -- 99
2020-07-13 00:00:00 11.4 15 Sudeste 20 Sudeste 0 -- -- 99
2020-07-12 23:00:00 11.9 0 Calma 6 Sudeste 0 -- -- 97
2020-07-12 22:00:00 13.1 3 Sur 31 Sudeste 0 -- -- 96
2020-07-12 21:00:00 13.5 21 Sudeste 31 Sudeste 1.2 -- -- 95
2020-07-12 20:00:00 13.3 15 Sudeste 22 Sudeste 3.4 -- -- 96
2020-07-12 19:00:00 13.9 6 Sudoeste 63 Sudoeste 22 -- -- 86
2020-07-12 18:00:00 18.4 29 Sur 48 Sur 6 -- -- 72
2020-07-12 17:00:00 27.5 6 Este 22 Oeste 0 -- -- 37
2020-07-12 16:00:00 27 5 Nordeste 19 Norte 0 -- -- 40
2020-07-12 15:00:00 25.4 4 Sudoeste 20 Sudeste 0 -- -- 49
2020-07-12 14:00:00 23.6 14 Sudeste 30 Sudeste 0 -- -- 56
2020-07-12 13:00:00 21 24 Sudeste 45 Sudeste 0 -- -- 65
2020-07-12 12:00:00 19.4 31 Sudeste 43 Sudeste 0 -- -- 75
2020-07-12 11:00:00 15.3 27 Sudeste 43 Sudeste 0 -- -- 94
2020-07-12 10:00:00 13.9 22 Sudeste 32 Sudeste 0 -- -- 98
2020-07-12 09:00:00 13 23 Sudeste 33 Sudeste 0 -- -- 99
2020-07-12 08:00:00 13 18 Sudeste 33 Sudeste 0 -- -- 98
2020-07-12 07:00:00 13.1 16 Sudeste 22 Sudeste 0.6 -- -- 96
2020-07-12 06:00:00 13.5 4 Noroeste 17 Noroeste 0 -- -- 92
2020-07-12 05:00:00 13.9 8 Este 23 Sudeste 0 -- -- 92
2020-07-12 04:00:00 15.8 18 Sudeste 33 Sudeste 0 -- -- 83
2020-07-12 03:00:00 15.9 17 Sudeste 35 Sudeste 0 -- -- 83
2020-07-12 02:00:00 15.8 27 Sudeste 37 Sudeste 0 -- -- 84
2020-07-12 01:00:00 17.1 20 Sudeste 33 Sudeste 0 -- -- 78
2020-07-12 00:00:00 16.9 19 Sudeste 32 Sudeste 0 -- -- 79
2020-07-11 23:00:00 17.6 17 Este 32 Sudeste 0 -- -- 76
2020-07-11 22:00:00 18.6 19 Sudeste 30 Sudeste 0 -- -- 74
2020-07-11 21:00:00 20.7 23 Sudeste 37 Sudeste 0 -- -- 68
2020-07-11 20:00:00 21.9 27 Sudeste 41 Sudeste 0 -- -- 65
2020-07-11 19:00:00 22.6 30 Sudeste 39 Sudeste 0 -- -- 64
2020-07-11 18:00:00 23.2 30 Sudeste 42 Sudeste 0 -- -- 63
2020-07-11 17:00:00 23 32 Sudeste 42 Sudeste 0 -- -- 65
2020-07-11 16:00:00 23.1 29 Sudeste 38 Sudeste 0 -- -- 65
2020-07-11 15:00:00 23.1 27 Sudeste 36 Sudeste 0 -- -- 64
2020-07-11 14:00:00 21.7 27 Sudeste 35 Sudeste 0 -- -- 65
2020-07-11 13:00:00 20.5 26 Sudeste 37 Sudeste 0 -- -- 67
2020-07-11 12:00:00 18.1 29 Sudeste 41 Sudeste 0 -- -- 74
2020-07-11 11:00:00 15.1 31 Sudeste 44 Sudeste 0 -- -- 84
2020-07-11 10:00:00 12.2 31 Sudeste 43 Sudeste 0 -- -- 95
2020-07-11 09:00:00 11 27 Sudeste 38 Sudeste 0 -- -- 98
2020-07-11 08:00:00 10.8 27 Sudeste 40 Sudeste 0 -- -- 98
2020-07-11 07:00:00 11.1 24 Sudeste 37 Sudeste 0 -- -- 97
2020-07-11 06:00:00 11.5 27 Sudeste 38 Sudeste 0 -- -- 96
2020-07-11 05:00:00 11.8 26 Sudeste 39 Sudeste 0 -- -- 95
2020-07-11 04:00:00 12.2 27 Sudeste 40 Sudeste 0 -- -- 93
2020-07-11 03:00:00 12.6 26 Sudeste 37 Sudeste 0 -- -- 93
2020-07-11 02:00:00 12.7 24 Sudeste 38 Sudeste 0 -- -- 94
2020-07-11 01:00:00 12.9 27 Sudeste 38 Sudeste 0 -- -- 94
2020-07-11 00:00:00 13.1 26 Sudeste 37 Sudeste 0 -- -- 94
2020-07-10 23:00:00 13.4 23 Sudeste 37 Sudeste 0 -- -- 94
2020-07-10 22:00:00 13.5 22 Sudeste 43 Sudeste 0 -- -- 94
2020-07-10 21:00:00 14.4 30 Sudeste 43 Sudeste 0 -- -- 90
2020-07-10 20:00:00 16.1 28 Sudeste 39 Sudeste 0 -- -- 84
2020-07-10 19:00:00 19.1 28 Sudeste 41 Sudeste 0 -- -- 75
2020-07-10 18:00:00 21.3 27 Sudeste 37 Sudeste 0 -- -- 67
2020-07-10 17:00:00 21.6 30 Sudeste 38 Sudeste 0 -- -- 68
2020-07-10 16:00:00 21.9 28 Sudeste 37 Sudeste 0 -- -- 66
2020-07-10 15:00:00 20.9 24 Sudeste 34 Sudeste 0 -- -- 70
2020-07-10 14:00:00 21.6 21 Sudeste 31 Sudeste 0 -- -- 69
2020-07-10 13:00:00 21.1 22 Sudeste 28 Sudeste 0 -- -- 73
2020-07-10 12:00:00 19.7 21 Sudeste 31 Sudeste 0 -- -- 75
2020-07-10 11:00:00 17.2 24 Sudeste 33 Sudeste 0 -- -- 86
2020-07-10 10:00:00 14.9 20 Sudeste 28 Sudeste 0 -- -- 98
2020-07-10 09:00:00 13 19 Sudeste 28 Sudeste 0 -- -- 100
2020-07-10 08:00:00 12.6 15 Sudeste 27 Sudeste 0 -- -- 100
2020-07-10 07:00:00 12.5 17 Sudeste 30 Sudeste 0 -- -- 100
2020-07-10 06:00:00 12.3 19 Sudeste 35 Sudeste 0 -- -- 100
2020-07-10 05:00:00 12.1 24 Sudeste 37 Sudeste 0 -- -- 99
2020-07-10 04:00:00 11.7 19 Sudeste 27 Sudeste 0 -- -- 99
2020-07-10 03:00:00 11.2 9 Sudeste 17 Sudeste 0 -- -- 98
2020-07-10 02:00:00 10.5 2 Este 5 Sur 0 -- -- 99
2020-07-10 01:00:00 10.6 2 Este 5 Nordeste 0 -- -- 98
2020-07-10 00:00:00 11.4 6 Sudeste 13 Este 0 -- -- 98
2020-07-09 23:00:00 11.4 4 Noroeste 14 Noroeste 0 -- -- 97
2020-07-09 22:00:00 11.8 6 Este 9 Este 0 -- -- 96
2020-07-09 21:00:00 13.2 2 Sudoeste 13 Sudeste 0 -- -- 96
2020-07-09 20:00:00 12.9 8 Sudeste 14 Sudeste 0 -- -- 97
2020-07-09 19:00:00 12.3 7 Oeste 31 Sudeste 1.2 -- -- 94
2020-07-09 18:00:00 11.9 21 Sudeste 53 Sudoeste 57.4 -- -- 96
2020-07-09 17:00:00 23.8 17 Este 33 Este 0 -- -- 59
2020-07-09 16:00:00 26.2 17 Este 29 Este 0 -- -- 48
2020-07-09 15:00:00 28 6 Nordeste 25 Sudoeste 0 -- -- 33
2020-07-09 14:00:00 28 18 Sudoeste 28 Sudoeste 0 -- -- 34
2020-07-09 13:00:00 26.6 12 Este 27 Sudeste 0 -- -- 37
2020-07-09 12:00:00 25 11 Sudoeste 18 Sudoeste 0 -- -- 43
2020-07-09 11:00:00 22.9 7 Sudeste 13 Sudeste 0 -- -- 56
2020-07-09 10:00:00 18.4 6 Sudeste 15 Sudeste 0 -- -- 68
2020-07-09 09:00:00 17.9 9 Sudeste 22 Sudeste 0 -- -- 67
2020-07-09 08:00:00 14.7 8 Sudeste 19 Sudeste 0 -- -- 75
2020-07-09 07:00:00 13.6 17 Sudeste 26 Sudeste 0 -- -- 78
2020-07-09 06:00:00 14.1 16 Sudeste 24 Sudeste 0 -- -- 77
2020-07-09 05:00:00 13.5 12 Sudeste 19 Sudeste 0 -- -- 81
2020-07-09 04:00:00 13.9 15 Sudeste 22 Sudeste 0 -- -- 80
2020-07-09 03:00:00 14.7 13 Sudeste 17 Sudeste 0 -- -- 72
2020-07-09 02:00:00 14.5 3 Este 10 Sur 0 -- -- 80
2020-07-09 01:00:00 16.1 4 Nordeste 12 Oeste 0 -- -- 72
2020-07-09 00:00:00 17.4 8 Norte 18 Norte 0 -- -- 70
2020-07-08 23:00:00 16.8 5 Sur 13 Norte 0 -- -- 83
2020-07-08 22:00:00 18.3 6 Noroeste 24 Noroeste 0 -- -- 74
2020-07-08 21:00:00 20.5 32 Noroeste 61 Noroeste 0.2 -- -- 60
2020-07-08 20:00:00 25.4 10 Sudeste 30 Sur 0 -- -- 52
2020-07-08 19:00:00 28.4 13 Este 19 Este 0 -- -- 29
2020-07-08 18:00:00 27.9 8 Sudeste 22 Sudeste 0 -- -- 41
2020-07-08 17:00:00 29.6 13 Sur 20 Sur 0 -- -- 31
2020-07-08 16:00:00 29.5 6 Norte 15 Noroeste 0 -- -- 28
2020-07-08 15:00:00 29.2 7 Norte 16 Noroeste 0 -- -- 30
2020-07-08 14:00:00 28.2 6 Norte 12 Oeste 0 -- -- 36
2020-07-08 13:00:00 26.8 5 Sur 12 Noroeste 0 -- -- 44
2020-07-08 12:00:00 25.3 8 Sudeste 17 Sudeste 0 -- -- 47
2020-07-08 11:00:00 22.8 13 Sudeste 23 Sudeste 0 -- -- 54
2020-07-08 10:00:00 20.1 10 Sudeste 19 Sudeste 0 -- -- 61
2020-07-08 09:00:00 17.7 14 Sudeste 24 Sudeste 0 -- -- 66
2020-07-08 08:00:00 13.8 3 Norte 13 Sudeste 0 -- -- 81
2020-07-08 07:00:00 13 6 Sudeste 13 Sudeste 0 -- -- 79
2020-07-08 06:00:00 13.2 7 Sudeste 18 Sudeste 0 -- -- 78
2020-07-08 05:00:00 13.1 6 Sudeste 14 Sudeste 0 -- -- 78
2020-07-08 04:00:00 13.6 8 Este 18 Sudeste 0 -- -- 75
2020-07-08 03:00:00 14.1 9 Sudeste 13 Sudeste 0 -- -- 72
2020-07-08 02:00:00 14.7 6 Este 12 Sudeste 0 -- -- 68
2020-07-08 01:00:00 16 8 Sudeste 34 Sudeste 0 -- -- 61
2020-07-08 00:00:00 17.3 19 Sudeste 31 Sudeste 0 -- -- 55